Time;durP1;ratioP1;P1;durP2;ratioP2;P2;SDS_P1;SDS_P2;PMS_P1;PMS_P2;Temp;Humidity;BMP_temperature;BMP_pressure;BME280_temperature;BME280_humidity;BME280_pressure;Samples;Min_cycle;Max_cycle;Signal;HPM_P1;HPM_P2
2022/05/09 00:00:13;;;;;;;5.40;2.23;;;;;;;11.46;65.53;102411.88;5004136;28;20949;-52
2022/05/09 00:02:39;;;;;;;4.55;2.75;;;;;;;11.39;65.49;102412.59;5002797;28;20749;-52
2022/05/09 00:05:08;;;;;;;10.95;3.13;;;;;;;11.35;65.83;102408.13;5000847;28;20708;-53
2022/05/09 00:07:36;;;;;;;4.72;2.58;;;;;;;11.34;66.17;102411.59;5002024;28;20237;-52
2022/05/09 00:10:03;;;;;;;4.83;2.20;;;;;;;11.21;66.63;102410.44;4998527;28;20340;-52
2022/05/09 00:12:30;;;;;;;7.60;3.00;;;;;;;11.26;67.13;102407.91;5003217;28;20233;-54
2022/05/09 00:14:56;;;;;;;8.35;3.20;;;;;;;11.14;67.60;102412.88;5006294;28;20700;-52
2022/05/09 00:17:23;;;;;;;5.25;2.97;;;;;;;11.19;67.83;102411.22;4998615;28;20264;-53
2022/05/09 00:19:49;;;;;;;7.23;2.83;;;;;;;11.15;68.51;102419.91;4998222;28;20287;-51
2022/05/09 00:22:16;;;;;;;5.97;2.87;;;;;;;11.09;68.54;102415.41;4991851;28;20234;-53
2022/05/09 00:24:43;;;;;;;4.77;3.00;;;;;;;11.06;69.13;102414.44;5005652;28;20660;-52
2022/05/09 00:27:10;;;;;;;5.28;2.63;;;;;;;11.10;68.97;102414.56;5007360;28;20312;-51
2022/05/09 00:29:36;;;;;;;5.20;2.70;;;;;;;11.14;69.13;102415.50;5005548;28;20249;-54
2022/05/09 00:32:03;;;;;;;5.30;2.75;;;;;;;11.17;69.09;102411.22;5005557;28;20263;-52
2022/05/09 00:34:30;;;;;;;5.23;2.47;;;;;;;11.15;69.46;102415.53;5002769;28;20241;-52
2022/05/09 00:36:57;;;;;;;5.73;2.27;;;;;;;11.21;69.52;102414.81;5005843;28;20241;-51
2022/05/09 00:39:24;;;;;;;6.82;3.53;;;;;;;11.14;69.82;102412.88;4997674;28;20783;-52
2022/05/09 00:41:52;;;;;;;6.33;2.53;;;;;;;11.08;69.94;102416.25;4989664;28;20246;-52
2022/05/09 00:44:20;;;;;;;7.57;3.33;;;;;;;10.90;70.70;102416.69;4982002;28;20246;-52
2022/05/09 00:46:48;;;;;;;5.50;2.55;;;;;;;10.97;71.44;102415.97;4999862;28;20257;-51
2022/05/09 00:49:18;;;;;;;5.37;2.97;;;;;;;11.03;70.66;102424.88;4993651;28;20288;-52
2022/05/09 00:51:47;;;;;;;6.10;2.80;;;;;;;11.02;71.35;102417.84;4998287;28;20249;-53
2022/05/09 00:54:14;;;;;;;5.53;2.73;;;;;;;11.01;71.13;102419.56;4988331;28;20238;-52
2022/05/09 00:56:43;;;;;;;6.03;3.13;;;;;;;11.02;71.03;102418.75;5004616;28;20785;-52
2022/05/09 00:59:15;;;;;;;10.80;3.37;;;;;;;10.98;71.92;102419.50;4995983;28;20320;-52
2022/05/09 01:01:41;;;;;;;10.43;3.10;;;;;;;11.01;72.29;102426.56;5002311;28;20689;-54
2022/05/09 01:04:11;;;;;;;4.77;2.90;;;;;;;10.86;72.99;102420.09;4996851;28;20309;-52
2022/05/09 01:06:38;;;;;;;7.90;3.90;;;;;;;10.84;73.26;102418.28;4997942;28;20237;-55
2022/05/09 01:09:05;;;;;;;7.57;2.80;;;;;;;11.05;74.04;102423.16;4995999;28;20288;-53
2022/05/09 01:11:32;;;;;;;5.37;3.17;;;;;;;10.99;72.71;102414.28;5003318;28;20237;-52
2022/05/09 01:14:08;;;;;;;6.90;3.63;;;;;;;11.01;72.69;102421.31;5000690;28;20237;-54
2022/05/09 01:16:36;;;;;;;8.40;3.37;;;;;;;10.92;73.24;102425.50;5007631;28;20240;-52
2022/05/09 01:19:10;;;;;;;5.57;3.00;;;;;;;11.10;75.14;102422.44;5001119;28;20758;-52
2022/05/09 01:21:39;;;;;;;7.67;2.83;;;;;;;11.17;72.81;102412.97;5006474;28;20771;-52
2022/05/09 01:24:13;;;;;;;8.97;3.10;;;;;;;11.42;73.50;102423.19;4997075;28;20303;-52
2022/05/09 01:26:40;;;;;;;7.37;3.73;;;;;;;11.12;72.08;102425.97;5000171;28;20263;-53
2022/05/09 01:29:11;;;;;;;10.67;3.83;;;;;;;11.07;72.26;102427.63;5000345;28;20261;-52
2022/05/09 01:31:37;;;;;;;7.60;3.57;;;;;;;11.22;74.04;102427.97;4998337;28;20702;-52
2022/05/09 01:34:03;;;;;;;8.37;3.77;;;;;;;11.28;73.94;102429.88;5004666;28;20268;-52
2022/05/09 01:36:32;;;;;;;7.27;3.77;;;;;;;11.58;72.00;102427.06;4992191;28;20233;-52
2022/05/09 01:39:01;;;;;;;3.97;3.00;;;;;;;11.43;72.71;102424.06;4999640;28;20280;-52
2022/05/09 01:41:30;;;;;;;9.37;3.50;;;;;;;11.83;71.18;102422.28;4998128;28;20244;-52
2022/05/09 01:43:57;;;;;;;12.77;3.33;;;;;;;11.77;70.35;102416.94;4995684;28;20233;-52
2022/05/09 01:46:26;;;;;;;6.63;2.87;;;;;;;11.17;72.14;102428.72;5001834;28;20245;-52
2022/05/09 01:51:44;;;;;;;8.73;3.50;;;;;;;11.38;72.67;102426.59;4982906;28;20248;-52
2022/05/09 01:54:12;;;;;;;6.60;3.03;;;;;;;11.47;71.03;102428.53;5003370;28;20229;-52
2022/05/09 01:56:40;;;;;;;11.03;4.33;;;;;;;11.58;71.41;102431.41;5004413;28;20818;-53
2022/05/09 01:59:08;;;;;;;4.07;2.63;;;;;;;11.43;72.50;102427.56;4994768;28;20258;-53
2022/05/09 02:01:37;;;;;;;9.43;4.27;;;;;;;11.24;73.94;102428.03;4991116;28;20244;-52
2022/05/09 02:04:03;;;;;;;8.77;3.33;;;;;;;11.27;72.39;102424.56;4997498;28;20259;-52
2022/05/09 02:06:30;;;;;;;10.37;4.23;;;;;;;10.80;73.31;102422.56;5001992;28;20720;-52
2022/05/09 02:08:56;;;;;;;9.93;3.70;;;;;;;11.30;74.28;102428.19;4999510;28;20225;-53
2022/05/09 02:11:24;;;;;;;10.70;3.57;;;;;;;11.04;75.26;102431.91;5003479;28;20584;-52
2022/05/09 02:13:50;;;;;;;8.30;3.60;;;;;;;10.98;75.44;102436.16;4998550;28;20276;-52
2022/05/09 02:16:17;;;;;;;7.97;2.73;;;;;;;10.82;75.99;102426.13;5004959;28;20257;-51
2022/05/09 02:18:43;;;;;;;10.20;2.70;;;;;;;10.81;75.85;102427.00;5004249;28;20723;-51
2022/05/09 02:21:10;;;;;;;7.97;3.87;;;;;;;10.83;75.90;102421.75;4994570;28;20236;-53
2022/05/09 02:23:36;;;;;;;14.43;3.83;;;;;;;10.51;77.53;102435.84;5005095;28;20253;-53
2022/05/09 02:26:03;;;;;;;6.97;3.43;;;;;;;10.56;76.87;102441.19;5000600;28;20226;-52
2022/05/09 02:28:31;;;;;;;9.70;4.03;;;;;;;10.67;78.43;102447.66;4996463;28;20233;-53
2022/05/09 02:30:57;;;;;;;6.20;3.20;;;;;;;10.93;77.32;102440.41;5005305;28;20233;-52
2022/05/09 02:33:24;;;;;;;9.53;3.40;;;;;;;10.75;77.41;102445.22;5000374;28;20237;-53
2022/05/09 02:35:50;;;;;;;5.77;3.53;;;;;;;10.86;77.31;102433.22;4999019;28;20288;-54
2022/05/09 02:38:18;;;;;;;7.37;3.37;;;;;;;11.07;76.16;102434.63;5006010;28;20237;-54
2022/05/09 02:40:44;;;;;;;6.67;3.57;;;;;;;10.49;77.70;102442.81;5005146;28;20237;-52
2022/05/09 02:43:11;;;;;;;8.93;3.33;;;;;;;10.55;76.79;102447.31;5002723;28;20304;-52
2022/05/09 02:45:40;;;;;;;9.57;3.53;;;;;;;10.82;77.14;102439.25;5001033;28;20248;-52
2022/05/09 02:48:07;;;;;;;5.90;3.10;;;;;;;10.47;79.25;102439.22;5003317;28;20226;-52
2022/05/09 02:50:34;;;;;;;8.23;3.80;;;;;;;10.69;77.02;102450.31;5002378;28;20296;-53
2022/05/09 02:53:00;;;;;;;8.63;2.73;;;;;;;10.75;78.69;102442.59;5004351;28;20712;-52
2022/05/09 02:55:26;;;;;;;7.80;4.13;;;;;;;10.69;77.21;102455.56;5005237;28;20295;-52
2022/05/09 02:57:53;;;;;;;10.63;3.77;;;;;;;10.37;78.20;102452.06;4999161;28;20333;-53
2022/05/09 03:00:21;;;;;;;8.03;3.67;;;;;;;10.83;78.86;102448.91;5000257;28;20245;-52
2022/05/09 03:05:30;;;;;;;9.27;4.80;;;;;;;10.83;77.46;102446.28;4991354;28;20233;-52
2022/05/09 03:07:57;;;;;;;11.00;4.23;;;;;;;10.51;79.29;102454.22;5003357;28;20260;-53
2022/05/09 03:10:23;;;;;;;8.43;4.47;;;;;;;10.64;80.10;102457.19;5000236;28;20234;-52
2022/05/09 03:12:50;;;;;;;8.13;3.53;;;;;;;10.50;81.43;102452.44;4996802;28;20232;-52
2022/05/09 03:15:17;;;;;;;9.47;4.10;;;;;;;10.89;77.94;102454.34;5004616;28;20229;-51
2022/05/09 03:17:43;;;;;;;8.93;3.57;;;;;;;10.78;78.73;102461.06;5002649;28;20323;-53
2022/05/09 03:20:12;;;;;;;10.60;4.10;;;;;;;11.02;77.87;102457.25;5004013;28;20650;-52
2022/05/09 03:22:38;;;;;;;8.77;4.47;;;;;;;10.63;78.73;102465.88;4989593;28;20241;-53
2022/05/09 03:25:05;;;;;;;10.20;4.57;;;;;;;10.35;79.82;102474.75;5004242;28;20236;-51
2022/05/09 03:27:32;;;;;;;12.03;4.17;;;;;;;10.63;79.84;102472.03;4997809;28;20315;-50
2022/05/09 03:29:58;;;;;;;7.07;4.23;;;;;;;10.49;80.04;102473.41;4997234;28;20240;-52
2022/05/09 03:32:25;;;;;;;7.43;4.50;;;;;;;10.56;80.17;102471.81;4989532;28;20308;-52
2022/05/09 03:34:51;;;;;;;5.90;3.67;;;;;;;10.50;80.32;102476.09;4998105;28;20661;-53
2022/05/09 03:37:19;;;;;;;10.87;4.20;;;;;;;10.00;83.46;102478.16;4997095;28;20225;-52
2022/05/09 03:39:45;;;;;;;7.10;4.50;;;;;;;9.76;84.47;102469.53;4998417;28;20236;-51
2022/05/09 03:42:11;;;;;;;8.50;4.27;;;;;;;10.18;83.99;102474.25;4999124;28;20703;-53
2022/05/09 03:44:38;;;;;;;8.27;4.47;;;;;;;10.08;83.19;102477.47;5003890;28;20791;-51
2022/05/09 03:47:06;;;;;;;9.43;5.73;;;;;;;9.75;84.15;102475.59;4998336;28;20257;-52
2022/05/09 03:49:32;;;;;;;7.57;3.93;;;;;;;9.94;87.18;102477.94;4999149;28;20232;-52
2022/05/09 03:51:59;;;;;;;10.20;5.00;;;;;;;9.79;84.07;102477.47;4985817;28;20238;-53
2022/05/09 03:54:30;;;;;;;12.43;4.80;;;;;;;9.50;86.00;102471.34;4988987;28;20225;-51
2022/05/09 03:56:56;;;;;;;7.87;5.40;;;;;;;9.85;85.04;102477.66;4989175;28;20705;-52
2022/05/09 03:59:23;;;;;;;10.60;4.43;;;;;;;10.08;84.55;102474.84;4994400;28;20253;-52
2022/05/09 04:01:50;;;;;;;12.60;4.93;;;;;;;10.31;84.83;102473.78;4991679;28;20246;-53
2022/05/09 04:04:16;;;;;;;9.13;4.57;;;;;;;10.54;82.70;102468.28;5001942;28;20239;-52
2022/05/09 04:06:42;;;;;;;7.77;4.93;;;;;;;10.23;83.49;102473.53;5003028;28;20241;-52
2022/05/09 04:09:09;;;;;;;5.67;4.03;;;;;;;10.25;84.10;102478.84;4992296;28;20859;-52
2022/05/09 04:11:37;;;;;;;8.53;5.03;;;;;;;10.35;82.13;102475.63;5001457;28;20671;-51
2022/05/09 04:14:03;;;;;;;8.47;4.70;;;;;;;10.42;82.63;102477.59;4998786;28;20253;-52
2022/05/09 04:19:13;;;;;;;9.17;4.40;;;;;;;10.26;83.65;102480.66;4998330;28;20658;-53
2022/05/09 04:21:40;;;;;;;6.63;4.30;;;;;;;10.20;85.79;102483.94;5003818;28;20675;-53
2022/05/09 04:24:06;;;;;;;5.80;3.90;;;;;;;10.23;82.51;102486.66;4998354;28;20637;-52
2022/05/09 04:26:33;;;;;;;6.87;4.03;;;;;;;10.38;83.80;102485.34;5003633;28;20755;-53
2022/05/09 04:29:00;;;;;;;12.50;5.17;;;;;;;10.35;84.72;102482.63;5003102;28;20280;-51
2022/05/09 04:31:28;;;;;;;13.27;5.50;;;;;;;10.27;82.30;102488.56;5002097;28;20238;-51
2022/05/09 04:33:55;;;;;;;12.93;5.10;;;;;;;10.54;80.59;102478.81;5004138;28;20233;-53
2022/05/09 04:36:21;;;;;;;6.03;4.17;;;;;;;10.68;81.42;102490.56;5002177;28;20238;-52
2022/05/09 04:38:50;;;;;;;6.67;4.07;;;;;;;10.58;83.63;102488.53;4995256;28;20719;-52
2022/05/09 04:41:18;;;;;;;6.30;4.60;;;;;;;10.75;81.64;102487.25;5003194;28;20244;-52
2022/05/09 04:43:45;;;;;;;10.97;5.60;;;;;;;10.10;85.82;102491.50;5006763;28;20241;-53
2022/05/09 04:46:15;;;;;;;10.20;5.27;;;;;;;10.31;83.15;102488.66;5003115;28;20608;-52
2022/05/09 04:48:43;;;;;;;6.53;4.77;;;;;;;9.96;86.03;102491.09;4998895;28;20249;-53
2022/05/09 04:51:10;;;;;;;11.43;5.07;;;;;;;10.27;83.29;102492.91;4998000;28;20237;-53
2022/05/09 04:53:37;;;;;;;7.87;6.00;;;;;;;10.19;83.79;102489.16;5000240;28;20740;-53
2022/05/09 04:56:04;;;;;;;7.73;4.73;;;;;;;10.31;84.16;102493.91;5003226;28;20283;-53
2022/05/09 04:58:31;;;;;;;8.00;4.83;;;;;;;10.57;84.15;102481.50;4999842;28;20240;-54
2022/05/09 05:00:57;;;;;;;12.10;6.43;;;;;;;10.47;83.27;102491.75;4998158;28;20234;-55
2022/05/09 05:03:26;;;;;;;9.10;5.47;;;;;;;10.36;83.69;102487.94;5003837;28;20368;-51
2022/05/09 05:05:53;;;;;;;7.93;4.60;;;;;;;10.58;82.36;102489.41;4989503;28;20272;-54
2022/05/09 05:08:20;;;;;;;10.13;5.07;;;;;;;10.47;82.83;102490.88;4994706;28;20234;-53
2022/05/09 05:10:52;;;;;;;6.67;5.10;;;;;;;10.59;82.35;102495.56;5003602;28;20252;-53
2022/05/09 05:13:19;;;;;;;6.47;4.53;;;;;;;10.82;82.76;102494.44;5003721;28;20233;-53
2022/05/09 05:15:47;;;;;;;13.23;6.07;;;;;;;10.23;83.08;102502.41;4997890;28;20758;-53
2022/05/09 05:18:14;;;;;;;9.57;5.23;;;;;;;10.56;83.12;102500.72;5001358;28;20240;-52
2022/05/09 05:20:41;;;;;;;8.10;4.43;;;;;;;10.99;81.77;102498.41;4999726;28;20324;-52
2022/05/09 05:23:10;;;;;;;9.97;4.90;;;;;;;10.72;82.91;102500.31;4999562;28;20292;-53
2022/05/09 05:25:37;;;;;;;9.33;4.60;;;;;;;10.76;82.70;102504.78;5002754;28;20711;-52
2022/05/09 05:28:05;;;;;;;17.00;7.03;;;;;;;10.58;83.51;102494.66;5006482;28;20237;-51
2022/05/09 05:30:32;;;;;;;26.13;7.20;;;;;;;10.38;83.62;102502.00;4997642;28;20241;-54
2022/05/09 05:33:00;;;;;;;13.53;7.33;;;;;;;10.21;85.66;102508.47;4996401;28;20233;-51
2022/05/09 05:35:26;;;;;;;9.60;5.03;;;;;;;10.40;87.02;102500.31;5003589;28;20225;-52
2022/05/09 05:37:54;;;;;;;11.57;6.63;;;;;;;10.66;84.19;102502.75;4999493;28;20355;-52
2022/05/09 05:40:21;;;;;;;8.03;5.53;;;;;;;10.79;83.65;102494.34;4991066;28;20229;-51
2022/05/09 05:42:48;;;;;;;12.30;5.00;;;;;;;11.12;82.31;102493.44;5005819;28;20237;-53
2022/05/09 05:45:16;;;;;;;15.23;5.97;;;;;;;11.26;80.86;102492.03;5005068;28;20229;-52
2022/05/09 05:47:43;;;;;;;16.20;5.87;;;;;;;11.40;81.34;102501.13;5003339;28;20264;-52
2022/05/09 05:50:12;;;;;;;10.93;6.53;;;;;;;10.84;81.64;102497.97;4998090;28;20272;-53
2022/05/09 05:52:38;;;;;;;7.83;5.30;;;;;;;10.99;82.32;102508.03;4998230;28;20292;-53
2022/05/09 05:55:07;;;;;;;15.47;5.60;;;;;;;10.82;82.61;102502.31;4993984;28;20238;-52
2022/05/09 05:57:37;;;;;;;8.87;5.53;;;;;;;10.75;83.22;102508.28;4994576;28;20237;-53
2022/05/09 06:00:07;;;;;;;14.27;5.57;;;;;;;10.79;82.60;102504.88;5005245;28;20241;-52
2022/05/09 06:02:37;;;;;;;11.27;5.50;;;;;;;11.38;81.91;102505.50;5004737;28;20245;-51
2022/05/09 06:05:05;;;;;;;7.53;5.20;;;;;;;11.35;81.40;102505.41;5002650;28;20225;-52
2022/05/09 06:07:31;;;;;;;12.67;6.07;;;;;;;11.22;80.50;102508.59;5005241;28;20239;-53
2022/05/09 06:09:57;;;;;;;6.83;5.70;;;;;;;11.26;80.35;102513.06;5002317;28;20233;-52
2022/05/09 06:12:25;;;;;;;8.60;6.03;;;;;;;11.51;80.42;102504.03;5003408;28;20518;-52
2022/05/09 06:17:34;;;;;;;10.27;5.83;;;;;;;11.65;77.95;102512.25;4999402;28;20230;-52
2022/05/09 06:20:00;;;;;;;12.83;6.47;;;;;;;11.77;77.69;102506.41;5004718;28;20233;-52
2022/05/09 06:22:27;;;;;;;11.73;6.47;;;;;;;11.77;77.14;102509.91;4987241;28;20233;-52
2022/05/09 06:24:58;;;;;;;8.90;5.13;;;;;;;12.07;77.67;102508.81;4995712;28;20233;-52
2022/05/09 06:27:26;;;;;;;13.47;6.80;;;;;;;11.83;76.53;102511.78;5003240;28;20232;-53
2022/05/09 06:29:52;;;;;;;8.30;5.88;;;;;;;11.53;77.04;102510.22;5004715;28;20655;-52
2022/05/09 06:32:23;;;;;;;11.23;5.88;;;;;;;11.57;78.74;102519.06;4999932;28;20238;-52
2022/05/09 06:34:50;;;;;;;7.40;5.90;;;;;;;11.73;76.31;102517.72;5003955;28;20783;-54
2022/05/09 06:37:16;;;;;;;9.32;5.18;;;;;;;11.59;75.94;102517.38;4999740;28;20225;-52
2022/05/09 06:39:43;;;;;;;9.53;5.80;;;;;;;11.66;76.43;102521.94;4999099;28;20620;-52
2022/05/09 06:42:10;;;;;;;6.90;5.57;;;;;;;11.81;74.91;102524.91;4987387;28;20312;-51
2022/05/09 06:44:37;;;;;;;8.85;5.95;;;;;;;11.93;74.12;102524.31;4994328;28;20750;-53
2022/05/09 06:47:04;;;;;;;7.90;6.33;;;;;;;11.79;76.06;102521.34;4999695;28;20764;-53
2022/05/09 06:49:31;;;;;;;15.63;6.77;;;;;;;12.09;75.87;102520.28;5000651;28;20775;-53
2022/05/09 06:51:57;;;;;;;14.43;6.70;;;;;;;12.17;74.94;102523.97;4994768;28;20967;-53
2022/05/09 06:54:24;;;;;;;13.82;6.60;;;;;;;12.22;73.22;102527.59;4997684;28;20268;-52
2022/05/09 06:56:50;;;;;;;9.60;5.85;;;;;;;12.26;72.79;102529.44;4999503;28;20247;-52
2022/05/09 06:59:19;;;;;;;9.27;6.05;;;;;;;12.33;75.01;102528.72;4993273;28;20281;-52
2022/05/09 07:01:47;;;;;;;15.18;6.82;;;;;;;12.39;73.39;102527.97;5001531;28;20239;-54
2022/05/09 07:04:13;;;;;;;9.05;4.82;;;;;;;12.68;73.73;102522.38;5001096;28;20658;-52
2022/05/09 07:06:39;;;;;;;8.38;6.22;;;;;;;12.76;72.60;102521.63;5005421;28;20661;-53
2022/05/09 07:09:09;;;;;;;7.60;5.78;;;;;;;12.80;70.86;102530.50;5001804;28;20292;-53
2022/05/09 07:11:36;;;;;;;9.63;6.07;;;;;;;12.76;70.56;102526.91;5001347;28;20237;-53
2022/05/09 07:14:02;;;;;;;6.45;5.13;;;;;;;13.09;71.48;102531.00;5001955;28;20237;-52
2022/05/09 07:16:28;;;;;;;10.23;6.05;;;;;;;13.22;69.10;102537.41;5002452;28;20241;-52
2022/05/09 07:18:56;;;;;;;8.40;5.93;;;;;;;13.20;69.01;102524.19;4988841;28;20236;-53
2022/05/09 07:21:22;;;;;;;9.73;5.70;;;;;;;13.40;69.68;102526.28;5002382;28;20241;-53
2022/05/09 07:23:49;;;;;;;5.30;4.25;;;;;;;13.57;69.67;102528.31;5004076;28;20233;-53
2022/05/09 07:26:15;;;;;;;8.38;6.53;;;;;;;13.49;67.58;102526.44;5004818;28;20236;-54
2022/05/09 07:28:42;;;;;;;8.00;6.20;;;;;;;13.56;68.01;102525.69;5000701;28;20727;-52
2022/05/09 07:31:09;;;;;;;10.35;5.20;;;;;;;13.80;67.88;102523.41;5002955;28;20229;-52
2022/05/09 07:33:36;;;;;;;9.57;6.57;;;;;;;13.73;66.18;102521.53;5003954;28;20275;-53
2022/05/09 07:36:05;;;;;;;9.57;5.85;;;;;;;13.78;65.16;102533.03;5003822;28;20759;-52
2022/05/09 07:38:31;;;;;;;6.90;5.38;;;;;;;14.03;66.02;102525.47;4998712;28;20283;-52
2022/05/09 07:40:58;;;;;;;9.75;5.82;;;;;;;14.16;65.26;102526.53;4995411;28;20312;-53
2022/05/09 07:43:29;;;;;;;7.97;5.80;;;;;;;14.25;64.89;102532.81;5002892;28;20778;-53
2022/05/09 07:45:56;;;;;;;10.93;5.35;;;;;;;14.38;64.21;102519.75;4993030;28;20264;-53
2022/05/09 07:48:24;;;;;;;6.53;5.05;;;;;;;14.55;63.05;102520.88;4998844;28;20260;-52
2022/05/09 07:50:51;;;;;;;6.50;5.20;;;;;;;14.58;62.84;102525.31;4996087;28;20291;-51
2022/05/09 07:53:20;;;;;;;13.98;6.88;;;;;;;14.72;63.39;102523.69;5000521;28;20651;-54
2022/05/09 07:55:47;;;;;;;8.82;6.57;;;;;;;14.71;63.16;102522.81;4999780;28;20310;-52
2022/05/09 07:58:14;;;;;;;8.70;6.10;;;;;;;14.82;62.44;102525.56;4996111;28;20244;-53
2022/05/09 08:00:42;;;;;;;10.95;7.90;;;;;;;15.01;61.85;102524.84;5006366;28;20241;-52
2022/05/09 08:03:14;;;;;;;9.43;5.63;;;;;;;15.27;61.51;102514.53;4998085;28;20246;-52
2022/05/09 08:05:41;;;;;;;11.38;7.68;;;;;;;15.28;60.64;102505.69;5001594;28;20253;-51
2022/05/09 08:08:07;;;;;;;12.65;6.00;;;;;;;15.57;59.87;102512.97;5001112;28;20229;-51
2022/05/09 08:10:36;;;;;;;19.67;7.93;;;;;;;15.59;58.65;102511.22;4999203;28;20272;-53
2022/05/09 08:13:03;;;;;;;8.30;5.68;;;;;;;15.59;59.37;102505.94;4998163;28;20239;-53
2022/05/09 08:15:31;;;;;;;12.25;5.95;;;;;;;15.70;58.04;102508.69;4996375;28;20272;-53
2022/05/09 08:17:58;;;;;;;11.38;5.95;;;;;;;15.85;58.33;102505.22;4999209;28;20316;-54
2022/05/09 08:20:25;;;;;;;9.43;6.30;;;;;;;15.93;58.25;102506.16;4991230;28;20260;-52
2022/05/09 08:22:59;;;;;;;6.55;5.18;;;;;;;15.90;57.16;102507.03;4996676;28;20278;-54
2022/05/09 08:25:26;;;;;;;7.88;4.57;;;;;;;16.16;56.63;102509.81;4992244;28;20280;-52
2022/05/09 08:27:54;;;;;;;14.55;6.35;;;;;;;16.26;55.97;102502.78;5002318;28;20229;-53
2022/05/09 08:30:20;;;;;;;8.90;6.03;;;;;;;16.20;56.29;102506.28;4998588;28;20281;-52
2022/05/09 08:32:46;;;;;;;9.40;5.50;;;;;;;16.45;56.05;102511.66;4996055;28;20253;-52
2022/05/09 08:35:14;;;;;;;8.95;6.15;;;;;;;16.68;55.31;102499.38;5003363;28;20265;-51
2022/05/09 08:37:40;;;;;;;8.77;5.47;;;;;;;17.01;54.59;102494.13;5005710;28;20325;-52
2022/05/09 08:40:08;;;;;;;10.77;5.45;;;;;;;17.11;53.27;102502.09;5003634;28;20233;-54
2022/05/09 08:42:40;;;;;;;20.15;7.90;;;;;;;17.24;52.00;102499.47;5005169;28;20302;-52
2022/05/09 08:45:18;;;;;;;18.67;6.82;;;;;;;17.10;51.48;102492.38;4996360;28;20316;-52
2022/05/09 08:47:51;;;;;;;9.48;5.75;;;;;;;16.78;51.28;102496.75;5003050;28;20849;-53
2022/05/09 08:50:24;;;;;;;9.77;5.68;;;;;;;17.03;51.56;102501.22;5008687;28;20469;-52
2022/05/09 08:52:54;;;;;;;7.13;4.82;;;;;;;17.07;50.96;102492.38;4998392;28;20703;-52
2022/05/09 08:55:27;;;;;;;6.15;4.07;;;;;;;17.31;51.66;102487.94;5005909;28;20233;-53
2022/05/09 08:57:58;;;;;;;19.35;6.75;;;;;;;17.36;50.39;102496.78;5004772;28;20757;-54
2022/05/09 09:00:29;;;;;;;10.30;5.07;;;;;;;17.65;48.80;102492.31;5003106;28;20238;-53
2022/05/09 09:02:59;;;;;;;7.28;3.95;;;;;;;17.88;46.16;102494.06;5000173;28;20262;-53
2022/05/09 09:05:26;;;;;;;6.85;4.00;;;;;;;18.26;45.55;102498.34;4998929;28;20226;-51
2022/05/09 09:08:11;;;;;;;7.45;4.35;;;;;;;18.21;46.10;102482.38;4999912;28;20241;-51
2022/05/09 09:10:55;;;;;;;8.57;4.70;;;;;;;18.57;45.38;102484.00;4993237;28;20716;-52
2022/05/09 09:13:31;;;;;;;6.93;4.30;;;;;;;18.91;44.32;102481.09;5006856;28;20269;-54
2022/05/09 09:16:11;;;;;;;8.48;4.10;;;;;;;19.24;42.68;102484.41;5000970;28;20283;-54
2022/05/09 09:18:50;;;;;;;6.32;3.40;;;;;;;18.98;40.55;102473.97;5006748;28;20602;-52
2022/05/09 09:21:21;;;;;;;6.82;3.20;;;;;;;19.01;39.89;102481.94;5007088;28;20240;-51
2022/05/09 09:24:11;;;;;;;6.03;3.33;;;;;;;19.11;38.68;102482.75;5001636;28;20543;-53
2022/05/09 09:26:46;;;;;;;6.35;3.13;;;;;;;19.14;38.80;102485.38;5002425;28;20292;-52
2022/05/09 09:29:15;;;;;;;5.55;3.28;;;;;;;19.33;39.78;102489.63;5007099;28;20271;-52
2022/05/09 09:31:47;;;;;;;8.98;3.97;;;;;;;19.18;38.36;102477.34;5006699;28;20865;-52
2022/05/09 09:34:21;;;;;;;4.07;3.13;;;;;;;19.51;38.42;102473.47;5004944;28;20904;-52
2022/05/09 09:36:50;;;;;;;6.90;3.05;;;;;;;19.20;37.73;102487.97;5003819;28;20233;-52
2022/05/09 09:39:19;;;;;;;3.45;2.75;;;;;;;19.49;37.81;102485.94;4985406;28;20234;-52
2022/05/09 09:41:46;;;;;;;9.05;3.38;;;;;;;19.86;37.35;102480.22;4997970;28;20957;-53
2022/05/09 09:44:15;;;;;;;6.80;3.40;;;;;;;19.98;37.48;102469.41;5007756;28;20307;-52
2022/05/09 09:47:04;;;;;;;7.00;3.05;;;;;;;20.03;37.66;102475.56;5002410;28;20241;-53
2022/05/09 09:49:30;;;;;;;5.95;3.15;;;;;;;20.14;35.79;102480.75;4998752;28;20245;-53
2022/05/09 09:51:57;;;;;;;11.00;3.40;;;;;;;20.16;35.56;102478.09;5006224;28;20237;-52
2022/05/09 09:54:27;;;;;;;8.20;3.67;;;;;;;19.93;35.42;102476.56;4991613;28;20244;-53
2022/05/09 09:56:53;;;;;;;3.38;2.63;;;;;;;19.59;35.62;102475.19;5003383;28;20229;-52
2022/05/09 09:59:23;;;;;;;4.43;3.00;;;;;;;19.68;35.70;102472.44;5000321;28;20253;-53
2022/05/09 10:02:07;;;;;;;4.25;2.78;;;;;;;19.95;36.36;102458.78;5002321;28;20257;-52
2022/05/09 10:04:34;;;;;;;10.77;3.85;;;;;;;19.78;37.74;102456.31;4989603;28;20724;-53
2022/05/09 10:07:04;;;;;;;5.32;2.65;;;;;;;19.67;37.00;102457.34;4992444;28;20234;-53
2022/05/09 10:09:33;;;;;;;6.25;3.38;;;;;;;20.22;35.79;102462.00;4982918;28;20236;-52
2022/05/09 10:12:18;;;;;;;9.65;3.55;;;;;;;20.42;35.62;102451.03;5000816;28;20651;-53
2022/05/09 10:14:45;;;;;;;4.93;3.25;;;;;;;20.43;34.40;102450.16;5001975;28;20303;-53
2022/05/09 10:17:20;;;;;;;6.95;3.40;;;;;;;20.66;33.84;102441.81;5003296;28;20264;-55
2022/05/09 10:19:47;;;;;;;7.13;3.28;;;;;;;20.83;34.20;102439.75;4998087;28;20710;-54
2022/05/09 10:25:07;;;;;;;6.10;3.65;;;;;;;19.85;35.41;102441.13;4995935;28;20426;-53
2022/05/09 10:27:34;;;;;;;9.30;3.35;;;;;;;19.61;36.42;102431.63;4983405;28;20233;-54
2022/05/09 10:30:02;;;;;;;7.55;3.15;;;;;;;20.34;35.84;102427.16;4976223;28;20230;-52
2022/05/09 10:32:39;;;;;;;4.65;3.38;;;;;;;20.12;35.08;102417.69;4988813;28;20241;-52
2022/05/09 10:35:09;;;;;;;7.72;3.58;;;;;;;20.08;34.89;102422.19;4995325;28;20236;-53
2022/05/09 10:37:43;;;;;;;5.32;3.53;;;;;;;20.25;34.97;102419.28;4990926;28;20241;-56
2022/05/09 10:40:12;;;;;;;6.93;3.00;;;;;;;20.57;35.56;102415.28;4997669;28;20727;-54
2022/05/09 10:42:43;;;;;;;5.57;2.92;;;;;;;20.85;35.70;102416.59;5012536;28;20268;-53
2022/05/09 10:45:14;;;;;;;4.78;3.40;;;;;;;20.82;34.16;102405.97;5010291;28;20244;-52
2022/05/09 10:47:46;;;;;;;6.15;3.03;;;;;;;20.94;33.94;102400.41;5011477;28;20295;-55
2022/05/09 10:50:17;;;;;;;6.72;3.20;;;;;;;21.07;33.27;102408.22;5009133;28;20747;-53
2022/05/09 10:52:49;;;;;;;4.78;3.05;;;;;;;20.78;32.27;102404.28;5008100;28;20679;-53
2022/05/09 10:55:21;;;;;;;6.25;2.22;;;;;;;21.05;32.14;102402.00;4999964;28;20230;-53
2022/05/09 10:57:54;;;;;;;6.32;3.13;;;;;;;20.52;33.08;102393.13;5006809;28;20269;-53
2022/05/09 11:00:23;;;;;;;4.70;3.10;;;;;;;21.01;33.03;102389.63;5000525;28;20229;-54
2022/05/09 11:02:59;;;;;;;5.68;3.28;;;;;;;21.60;31.56;102391.19;5008316;28;20245;-52
2022/05/09 11:05:26;;;;;;;5.55;2.80;;;;;;;21.88;31.59;102391.47;5006329;28;20233;-54
2022/05/09 11:07:56;;;;;;;4.07;2.70;;;;;;;22.15;32.18;102390.03;4999418;28;20237;-52
2022/05/09 11:10:29;;;;;;;4.43;3.42;;;;;;;22.55;30.67;102381.03;5001799;28;21199;-53
2022/05/09 11:13:09;;;;;;;11.43;3.38;;;;;;;22.58;31.67;102377.41;5004196;28;20236;-53
2022/05/09 11:15:39;;;;;;;8.60;2.67;;;;;;;22.96;30.92;102378.25;5000474;28;20225;-53
2022/05/09 11:18:32;;;;;;;17.60;5.32;;;;;;;22.71;27.59;102375.28;5003998;28;20234;-52
2022/05/09 11:21:03;;;;;;;7.10;2.78;;;;;;;22.97;27.81;102377.34;5010183;28;20238;-52
2022/05/09 11:23:33;;;;;;;5.97;2.67;;;;;;;22.14;27.01;102360.56;4993822;28;20257;-54
2022/05/09 11:26:06;;;;;;;8.07;2.63;;;;;;;21.62;29.39;102367.06;4990035;28;20226;-53
2022/05/09 11:28:46;;;;;;;4.85;3.10;;;;;;;21.81;29.19;102368.47;4996379;28;20261;-53
2022/05/09 11:31:18;;;;;;;6.50;3.03;;;;;;;22.03;27.37;102365.31;4987657;28;20238;-54
2022/05/09 11:33:58;;;;;;;5.63;2.63;;;;;;;22.25;26.62;102369.25;5004308;28;20244;-52
2022/05/09 11:36:35;;;;;;;6.35;2.60;;;;;;;23.06;26.70;102358.31;5001044;28;20328;-52
2022/05/09 11:39:09;;;;;;;5.15;3.17;;;;;;;23.44;28.21;102353.69;5003312;28;20285;-52
2022/05/09 11:41:39;;;;;;;3.45;2.22;;;;;;;23.65;27.89;102355.72;4994306;28;20237;-53
2022/05/09 11:44:14;;;;;;;2.63;2.28;;;;;;;23.36;27.09;102355.72;5006080;28;20232;-52